Terminal Aerodrome Forecast
Issued by NWS

Home | Current Version | Previous Version | Text Only | Print | Product List | Glossary On
Versions: 1 2 3 4 5 6 7 8 9 10 11 12 13 14
000
FTUS46 KSGX 022331
TAFSNA
TAF
KSNA 022331Z 0300/0324 23009KT P6SM SCT130 SCT250
     FM030200 VRB05KT P6SM FEW010
     FM030800 VRB05KT 6SM BR BKN008
     FM031500 VRB05KT P6SM BKN010
     FM031700 VRB05KT P6SM SCT012
     FM032000 23008KT P6SM FEW015=

USA.gov is the U.S. government's official web portal to all federal, state and local government web resources and services.